Time;durP1;ratioP1;P1;durP2;ratioP2;P2;SDS_P1;SDS_P2;PMS_P1;PMS_P2;Temp;Humidity;BMP_temperature;BMP_pressure;BME280_temperature;BME280_humidity;BME280_pressure;Samples;Min_cycle;Max_cycle;Signal;HPM_P1;HPM_P2
2023/12/09 00:01:15;;;;;;;;;;;19.00;59.60;;;;;;5035173;28;1873;-71
2023/12/09 00:03:40;;;;;;;;;;;19.00;59.60;;;;;;5037314;28;1376;-71
2023/12/09 00:06:06;;;;;;;;;;;19.00;59.60;;;;;;5040157;28;1276;-71
2023/12/09 00:08:31;;;;;;;;;;;19.10;59.70;;;;;;5037853;28;1910;-71
2023/12/09 00:10:57;;;;;;;;;;;19.00;59.70;;;;;;5040104;28;1391;-71
2023/12/09 00:13:22;;;;;;;;;;;19.00;59.60;;;;;;5040258;28;1290;-70
2023/12/09 00:15:48;;;;;;;;;;;19.00;59.60;;;;;;5039232;28;1902;-72
2023/12/09 00:18:14;;;;;;;;;;;19.10;59.70;;;;;;5038857;28;1444;-72
2023/12/09 00:20:39;;;;;;;;;;;19.10;59.70;;;;;;5039051;28;1756;-73
2023/12/09 00:23:06;;;;;;;;;;;19.10;59.70;;;;;;5038392;28;1333;-72
2023/12/09 00:25:31;;;;;;;;;;;19.00;60.30;;;;;;5038494;28;1434;-73
2023/12/09 00:27:56;;;;;;;;;;;19.10;59.70;;;;;;5040156;28;1531;-73
2023/12/09 00:30:22;;;;;;;;;;;19.00;59.70;;;;;;5039587;28;1961;-72
2023/12/09 00:32:47;;;;;;;;;;;19.00;59.70;;;;;;5041282;28;1518;-69
2023/12/09 00:35:13;;;;;;;;;;;19.00;59.70;;;;;;5037601;28;1429;-69
2023/12/09 00:37:40;;;;;;;;;;;19.00;59.70;;;;;;5041844;28;1311;-71
2023/12/09 00:40:06;;;;;;;;;;;19.00;59.70;;;;;;5038655;28;1571;-71
2023/12/09 00:42:32;;;;;;;;;;;19.00;59.70;;;;;;5038241;28;1952;-71
2023/12/09 00:44:57;;;;;;;;;;;19.00;59.70;;;;;;5040888;28;1671;-72
2023/12/09 00:47:22;;;;;;;;;;;19.00;59.70;;;;;;5039446;28;1459;-72
2023/12/09 00:49:48;;;;;;;;;;;19.00;59.70;;;;;;5037176;28;1964;-71
2023/12/09 00:52:13;;;;;;;;;;;19.00;59.70;;;;;;5039322;28;1319;-71
2023/12/09 00:54:39;;;;;;;;;;;19.00;59.70;;;;;;5037792;28;1337;-70
2023/12/09 00:57:04;;;;;;;;;;;19.00;59.70;;;;;;5039531;28;1304;-70
2023/12/09 00:59:30;;;;;;;;;;;19.00;59.70;;;;;;5036792;28;922;-70
2023/12/09 01:01:55;;;;;;;;;;;19.00;59.70;;;;;;5037392;28;1005;-70
2023/12/09 01:04:21;;;;;;;;;;;19.00;59.80;;;;;;5037370;28;990;-70
2023/12/09 01:06:46;;;;;;;;;;;19.00;59.70;;;;;;5036843;28;1061;-70
2023/12/09 01:09:13;;;;;;;;;;;19.00;59.80;;;;;;5036741;28;1898;-71
2023/12/09 01:11:39;;;;;;;;;;;19.00;59.80;;;;;;5036618;28;1280;-71
2023/12/09 01:14:05;;;;;;;;;;;19.00;59.80;;;;;;5035394;28;1393;-70
2023/12/09 01:16:30;;;;;;;;;;;19.00;59.80;;;;;;5035031;28;1310;-70
2023/12/09 01:18:55;;;;;;;;;;;19.00;59.80;;;;;;5036334;28;1312;-70
2023/12/09 01:21:21;;;;;;;;;;;19.00;59.80;;;;;;5035031;28;1456;-71
2023/12/09 01:23:46;;;;;;;;;;;19.00;59.80;;;;;;5037247;28;1346;-70
2023/12/09 01:26:12;;;;;;;;;;;19.00;59.80;;;;;;5036074;28;1490;-71
2023/12/09 01:28:37;;;;;;;;;;;19.00;59.80;;;;;;5038307;28;1926;-71
2023/12/09 01:31:03;;;;;;;;;;;19.00;59.80;;;;;;5038766;28;1255;-71
2023/12/09 01:33:29;;;;;;;;;;;19.00;59.90;;;;;;5036726;28;1520;-71
2023/12/09 01:35:54;;;;;;;;;;;19.00;59.80;;;;;;5037778;28;1390;-71
2023/12/09 01:38:20;;;;;;;;;;;19.00;59.80;;;;;;5039636;28;1331;-71
2023/12/09 01:40:54;;;;;;;;;;;19.00;59.90;;;;;;5043758;28;1296;-71
2023/12/09 01:43:20;;;;;;;;;;;19.00;60.60;;;;;;5039955;28;1361;-71
2023/12/09 01:45:45;;;;;;;;;;;19.00;59.90;;;;;;5041990;28;1562;-71
2023/12/09 01:48:11;;;;;;;;;;;19.00;59.90;;;;;;5038121;28;1498;-73
2023/12/09 01:50:36;;;;;;;;;;;18.90;59.90;;;;;;5043810;28;1965;-71
2023/12/09 01:53:02;;;;;;;;;;;19.00;59.90;;;;;;5040086;28;1524;-72
2023/12/09 01:55:27;;;;;;;;;;;19.00;59.90;;;;;;5041769;28;1298;-73
2023/12/09 01:57:52;;;;;;;;;;;18.90;59.90;;;;;;5037130;28;1434;-72
2023/12/09 02:00:18;;;;;;;;;;;19.00;60.00;;;;;;5039247;28;1361;-73
2023/12/09 02:02:44;;;;;;;;;;;19.00;60.70;;;;;;5041802;28;1510;-72
2023/12/09 02:05:10;;;;;;;;;;;18.90;60.00;;;;;;5044250;28;1653;-72
2023/12/09 02:07:35;;;;;;;;;;;18.90;59.90;;;;;;5038836;28;1409;-71
2023/12/09 02:10:01;;;;;;;;;;;18.90;60.00;;;;;;5042770;28;1910;-71
2023/12/09 02:12:29;;;;;;;;;;;18.90;59.90;;;;;;5039449;28;1529;-71
2023/12/09 02:15:01;;;;;;;;;;;18.90;59.90;;;;;;5042764;28;1529;-71
2023/12/09 02:17:27;;;;;;;;;;;18.90;59.90;;;;;;5039016;28;1822;-71
2023/12/09 02:19:53;;;;;;;;;;;18.90;59.90;;;;;;5036895;28;1522;-71
2023/12/09 02:22:18;;;;;;;;;;;18.90;59.90;;;;;;5048838;28;1314;-70
2023/12/09 02:24:44;;;;;;;;;;;18.90;59.90;;;;;;5042070;28;954;-70
2023/12/09 02:27:13;;;;;;;;;;;18.90;60.00;;;;;;5044439;28;1299;-71
2023/12/09 02:29:41;;;;;;;;;;;18.90;60.00;;;;;;5040942;28;1910;-71
2023/12/09 02:32:06;;;;;;;;;;;18.90;60.00;;;;;;5040506;28;1256;-71
2023/12/09 02:34:33;;;;;;;;;;;18.90;60.00;;;;;;5042425;28;1233;-71
2023/12/09 02:36:59;;;;;;;;;;;18.90;60.00;;;;;;5042367;28;1359;-71
2023/12/09 02:39:24;;;;;;;;;;;18.90;60.00;;;;;;5039715;28;1217;-71
2023/12/09 02:41:50;;;;;;;;;;;18.90;60.00;;;;;;5037888;28;1209;-71
2023/12/09 02:44:15;;;;;;;;;;;18.90;60.00;;;;;;5041904;28;1578;-71
2023/12/09 02:46:40;;;;;;;;;;;18.90;60.00;;;;;;5040280;28;1458;-71
2023/12/09 02:49:06;;;;;;;;;;;18.90;60.00;;;;;;5039076;28;1983;-71
2023/12/09 02:51:31;;;;;;;;;;;18.90;60.00;;;;;;5039464;28;1252;-71
2023/12/09 02:53:57;;;;;;;;;;;18.90;60.00;;;;;;5041725;28;1275;-71
2023/12/09 02:56:22;;;;;;;;;;;18.90;60.10;;;;;;5039252;28;1285;-71
2023/12/09 02:58:48;;;;;;;;;;;18.90;60.10;;;;;;5039696;28;1346;-71
2023/12/09 03:01:13;;;;;;;;;;;18.90;60.10;;;;;;5038767;28;1548;-71
2023/12/09 03:03:39;;;;;;;;;;;18.90;60.10;;;;;;5038803;28;1348;-70
2023/12/09 03:06:04;;;;;;;;;;;18.90;60.10;;;;;;5036948;28;1414;-70
2023/12/09 03:08:30;;;;;;;;;;;18.90;60.20;;;;;;5029576;28;1414;-71
2023/12/09 03:10:55;;;;;;;;;;;18.90;60.20;;;;;;5040439;28;1910;-71
2023/12/09 03:13:20;;;;;;;;;;;18.90;60.20;;;;;;5036407;28;1248;-71
2023/12/09 03:15:46;;;;;;;;;;;18.90;60.20;;;;;;5038786;28;1479;-71
2023/12/09 03:18:11;;;;;;;;;;;18.90;60.20;;;;;;5039394;28;1355;-70
2023/12/09 03:20:37;;;;;;;;;;;18.90;60.20;;;;;;5040532;28;1372;-72
2023/12/09 03:23:02;;;;;;;;;;;18.90;60.10;;;;;;5040256;28;1287;-72
2023/12/09 03:25:28;;;;;;;;;;;18.90;60.10;;;;;;5041989;28;1550;-71
2023/12/09 03:27:53;;;;;;;;;;;18.90;60.10;;;;;;5040891;28;1264;-71
2023/12/09 03:30:19;;;;;;;;;;;18.90;60.10;;;;;;5039558;28;1910;-71
2023/12/09 03:32:45;;;;;;;;;;;18.90;60.10;;;;;;5046414;28;1261;-72
2023/12/09 03:35:12;;;;;;;;;;;18.90;60.00;;;;;;5039696;28;1374;-72
2023/12/09 03:37:37;;;;;;;;;;;18.90;60.00;;;;;;5040491;28;1300;-71
2023/12/09 03:40:03;;;;;;;;;;;18.90;60.10;;;;;;5041567;28;1696;-70
2023/12/09 03:42:29;;;;;;;;;;;18.90;60.80;;;;;;5039668;28;1096;-70
2023/12/09 03:44:54;;;;;;;;;;;18.90;60.00;;;;;;5035533;28;1326;-69
2023/12/09 03:47:20;;;;;;;;;;;18.90;60.00;;;;;;5042495;28;1386;-71
2023/12/09 03:49:45;;;;;;;;;;;18.90;60.00;;;;;;5036321;28;1910;-70
2023/12/09 03:52:11;;;;;;;;;;;18.90;60.00;;;;;;5041801;28;1146;-72
2023/12/09 03:54:39;;;;;;;;;;;18.90;60.00;;;;;;5037992;28;1300;-71
2023/12/09 03:57:05;;;;;;;;;;;18.90;60.00;;;;;;5040677;28;1390;-71
2023/12/09 03:59:30;;;;;;;;;;;18.90;60.00;;;;;;5037412;28;917;-71
2023/12/09 04:01:55;;;;;;;;;;;18.90;60.00;;;;;;5037709;28;1469;-72
2023/12/09 04:04:21;;;;;;;;;;;18.90;60.00;;;;;;5037740;28;1394;-72
2023/12/09 04:06:46;;;;;;;;;;;18.90;60.10;;;;;;5036149;28;1327;-72
2023/12/09 04:09:12;;;;;;;;;;;18.90;60.10;;;;;;5035995;28;1906;-72
2023/12/09 04:11:37;;;;;;;;;;;18.90;60.10;;;;;;5068654;28;1392;-72
2023/12/09 04:14:04;;;;;;;;;;;18.90;60.10;;;;;;5037652;28;1356;-72
2023/12/09 04:16:29;;;;;;;;;;;18.90;60.10;;;;;;5036509;28;1348;-71
2023/12/09 04:18:55;;;;;;;;;;;18.90;60.10;;;;;;5038076;28;1272;-73
2023/12/09 04:21:20;;;;;;;;;;;18.90;60.10;;;;;;5041985;28;1355;-73
2023/12/09 04:23:46;;;;;;;;;;;18.90;60.10;;;;;;5036999;28;1361;-73
2023/12/09 04:26:11;;;;;;;;;;;18.90;60.10;;;;;;5038301;28;1194;-72
2023/12/09 04:28:37;;;;;;;;;;;18.90;60.10;;;;;;5037070;28;1894;-72
2023/12/09 04:31:02;;;;;;;;;;;18.90;60.10;;;;;;5035429;28;970;-72
2023/12/09 04:33:29;;;;;;;;;;;18.90;60.10;;;;;;5039396;28;892;-72
2023/12/09 04:35:55;;;;;;;;;;;18.90;60.10;;;;;;5038244;28;899;-72
2023/12/09 04:38:21;;;;;;;;;;;18.90;60.10;;;;;;5038466;28;1386;-72
2023/12/09 04:40:46;;;;;;;;;;;18.90;60.10;;;;;;5040084;28;1798;-72
2023/12/09 04:43:12;;;;;;;;;;;18.90;60.10;;;;;;5035847;28;1442;-73
2023/12/09 04:45:37;;;;;;;;;;;18.90;60.10;;;;;;5038294;28;1233;-72
2023/12/09 04:48:03;;;;;;;;;;;18.90;60.10;;;;;;5038574;28;2778;-72
2023/12/09 04:50:29;;;;;;;;;;;18.90;60.10;;;;;;5054759;28;1902;-72
2023/12/09 04:52:54;;;;;;;;;;;18.90;60.10;;;;;;5037243;28;1486;-72
2023/12/09 04:55:20;;;;;;;;;;;18.90;60.10;;;;;;5038513;28;1634;-72
2023/12/09 04:57:45;;;;;;;;;;;18.90;60.10;;;;;;5037365;28;1441;-71
2023/12/09 05:00:11;;;;;;;;;;;18.90;60.10;;;;;;5036545;28;1362;-71
2023/12/09 05:02:37;;;;;;;;;;;18.90;60.20;;;;;;5035705;28;1247;-71
2023/12/09 05:05:04;;;;;;;;;;;18.90;60.20;;;;;;5037425;28;1347;-71
2023/12/09 05:07:30;;;;;;;;;;;18.90;60.20;;;;;;5035379;28;1423;-71
2023/12/09 05:09:55;;;;;;;;;;;18.90;60.20;;;;;;5039251;28;1966;-70
2023/12/09 05:12:21;;;;;;;;;;;18.90;60.20;;;;;;5038510;28;1159;-70
2023/12/09 05:14:46;;;;;;;;;;;19.00;61.00;;;;;;5034275;28;1271;-71
2023/12/09 05:17:12;;;;;;;;;;;19.00;60.10;;;;;;5039622;28;1809;-71
2023/12/09 05:19:37;;;;;;;;;;;19.10;60.10;;;;;;5035030;28;1394;-71
2023/12/09 05:22:03;;;;;;;;;;;19.20;59.90;;;;;;5037966;28;1383;-71
2023/12/09 05:24:28;;;;;;;;;;;19.40;59.70;;;;;;5035925;28;1228;-71
2023/12/09 05:26:54;;;;;;;;;;;19.50;59.40;;;;;;5041023;28;1574;-71
2023/12/09 05:29:20;;;;;;;;;;;19.70;59.10;;;;;;5034610;28;1956;-71
2023/12/09 05:31:45;;;;;;;;;;;19.80;58.80;;;;;;5035214;28;1503;-71
2023/12/09 05:34:11;;;;;;;;;;;20.00;58.50;;;;;;5036373;28;1553;-72
2023/12/09 05:36:37;;;;;;;;;;;20.10;58.20;;;;;;5036098;28;1324;-70
2023/12/09 05:39:02;;;;;;;;;;;20.30;57.90;;;;;;5036766;28;1367;-70
2023/12/09 05:41:28;;;;;;;;;;;20.40;57.70;;;;;;5036072;28;1490;-70
2023/12/09 05:43:53;;;;;;;;;;;20.50;57.50;;;;;;5038025;28;1256;-70
2023/12/09 05:46:19;;;;;;;;;;;20.60;57.20;;;;;;5034248;28;1747;-71
2023/12/09 05:48:44;;;;;;;;;;;20.70;57.00;;;;;;5036679;28;2111;-70
2023/12/09 05:51:10;;;;;;;;;;;20.80;57.30;;;;;;5033084;28;1935;-69
2023/12/09 05:53:35;;;;;;;;;;;20.90;56.50;;;;;;5035773;28;1433;-69
2023/12/09 05:56:01;;;;;;;;;;;21.00;56.40;;;;;;5036402;28;1290;-71
2023/12/09 05:58:26;;;;;;;;;;;21.00;56.20;;;;;;5036277;28;1335;-72
2023/12/09 06:00:52;;;;;;;;;;;21.10;56.10;;;;;;5036088;28;1237;-72
2023/12/09 06:03:17;;;;;;;;;;;21.10;56.00;;;;;;5035788;28;1364;-69
2023/12/09 06:05:43;;;;;;;;;;;21.10;55.90;;;;;;5034869;28;1518;-69
2023/12/09 06:08:08;;;;;;;;;;;21.10;55.80;;;;;;5036632;28;1391;-69
2023/12/09 06:10:34;;;;;;;;;;;21.20;55.90;;;;;;5034045;28;1977;-70
2023/12/09 06:12:59;;;;;;;;;;;21.10;55.80;;;;;;5037758;28;1357;-69
2023/12/09 06:15:25;;;;;;;;;;;21.20;55.90;;;;;;5035247;28;1287;-69
2023/12/09 06:17:50;;;;;;;;;;;21.20;55.90;;;;;;5034609;28;1572;-70
2023/12/09 06:20:16;;;;;;;;;;;21.20;55.90;;;;;;5036427;28;1250;-70
2023/12/09 06:22:41;;;;;;;;;;;21.10;55.90;;;;;;5034056;28;1541;-70
2023/12/09 06:25:07;;;;;;;;;;;21.10;55.80;;;;;;5035643;28;1475;-70
2023/12/09 06:27:33;;;;;;;;;;;21.10;55.80;;;;;;5040956;28;1284;-70
2023/12/09 06:29:58;;;;;;;;;;;21.10;55.80;;;;;;5040987;28;1965;-69
2023/12/09 06:32:23;;;;;;;;;;;21.10;55.90;;;;;;5041339;28;942;-70
2023/12/09 06:34:49;;;;;;;;;;;21.10;55.90;;;;;;5039586;28;1109;-70
2023/12/09 06:37:14;;;;;;;;;;;21.10;55.90;;;;;;5041112;28;1296;-70
2023/12/09 06:39:40;;;;;;;;;;;21.00;56.00;;;;;;5039364;28;1572;-71
2023/12/09 06:42:05;;;;;;;;;;;21.00;56.00;;;;;;5041197;28;1248;-72
2023/12/09 06:44:31;;;;;;;;;;;21.00;56.10;;;;;;5037667;28;1356;-71
2023/12/09 06:46:56;;;;;;;;;;;21.00;56.10;;;;;;5038604;28;1383;-72
2023/12/09 06:49:22;;;;;;;;;;;21.00;56.20;;;;;;5039725;28;1973;-70
2023/12/09 06:51:47;;;;;;;;;;;20.90;56.20;;;;;;5037936;28;1129;-70
2023/12/09 06:54:13;;;;;;;;;;;20.90;56.20;;;;;;5040133;28;1264;-70
2023/12/09 06:56:38;;;;;;;;;;;20.90;56.30;;;;;;5041536;28;1193;-71
2023/12/09 06:59:05;;;;;;;;;;;20.90;56.40;;;;;;5040790;28;1292;-70
2023/12/09 07:01:30;;;;;;;;;;;20.80;56.40;;;;;;5041359;28;1454;-71
2023/12/09 07:03:56;;;;;;;;;;;20.80;56.40;;;;;;5040094;28;1539;-70
2023/12/09 07:06:21;;;;;;;;;;;20.80;56.50;;;;;;5036825;28;1833;-70
2023/12/09 07:08:47;;;;;;;;;;;20.80;56.60;;;;;;5040809;28;1909;-70
2023/12/09 07:11:12;;;;;;;;;;;20.70;56.60;;;;;;5033488;28;1296;-68
2023/12/09 07:13:41;;;;;;;;;;;20.70;56.70;;;;;;5038616;28;1609;-69
2023/12/09 07:16:09;;;;;;;;;;;20.70;56.70;;;;;;5070851;28;1640;-69
2023/12/09 07:18:34;;;;;;;;;;;20.70;56.80;;;;;;5035894;28;1480;-68
2023/12/09 07:21:00;;;;;;;;;;;20.60;56.90;;;;;;5039576;28;1343;-68
2023/12/09 07:23:25;;;;;;;;;;;20.60;56.90;;;;;;5036294;28;1471;-70
2023/12/09 07:25:51;;;;;;;;;;;20.60;57.00;;;;;;5036984;28;1512;-70
2023/12/09 07:28:16;;;;;;;;;;;20.60;57.00;;;;;;5038477;28;1709;-72
2023/12/09 07:30:42;;;;;;;;;;;20.60;57.10;;;;;;5040445;28;1902;-72
2023/12/09 07:33:07;;;;;;;;;;;20.50;57.10;;;;;;5068866;28;1296;-70
2023/12/09 07:35:33;;;;;;;;;;;20.50;57.20;;;;;;5039710;28;1498;-70
2023/12/09 07:37:58;;;;;;;;;;;20.50;57.30;;;;;;5037729;28;1555;-68
2023/12/09 07:40:24;;;;;;;;;;;20.40;57.30;;;;;;5038694;28;1370;-71
2023/12/09 07:42:49;;;;;;;;;;;20.40;57.30;;;;;;5040826;28;1374;-72
2023/12/09 07:45:15;;;;;;;;;;;20.40;57.40;;;;;;5036834;28;1539;-71
2023/12/09 07:47:40;;;;;;;;;;;20.40;57.50;;;;;;5046051;28;1369;-70
2023/12/09 07:50:06;;;;;;;;;;;20.30;57.50;;;;;;5034663;28;1918;-71
2023/12/09 07:52:31;;;;;;;;;;;20.30;57.60;;;;;;5037645;28;1394;-69
2023/12/09 07:54:57;;;;;;;;;;;20.30;57.60;;;;;;5039715;28;1453;-69
2023/12/09 07:57:22;;;;;;;;;;;20.30;57.60;;;;;;5038969;28;1660;-71
2023/12/09 07:59:48;;;;;;;;;;;20.30;57.70;;;;;;5036291;28;1358;-70
2023/12/09 08:02:13;;;;;;;;;;;20.30;57.80;;;;;;5038810;28;1314;-70
2023/12/09 08:04:39;;;;;;;;;;;20.20;57.80;;;;;;5037343;28;1511;-71
2023/12/09 08:07:04;;;;;;;;;;;20.20;57.80;;;;;;5038127;28;1277;-70
2023/12/09 08:09:30;;;;;;;;;;;20.20;57.90;;;;;;5039139;28;1898;-70
2023/12/09 08:11:55;;;;;;;;;;;20.20;57.90;;;;;;5041094;28;1299;-70
2023/12/09 08:14:21;;;;;;;;;;;20.10;57.90;;;;;;5037172;28;1364;-71
2023/12/09 08:16:46;;;;;;;;;;;20.10;58.00;;;;;;5040433;28;1256;-70
2023/12/09 08:19:13;;;;;;;;;;;20.10;58.00;;;;;;5036059;28;1389;-71
2023/12/09 08:21:38;;;;;;;;;;;20.10;58.00;;;;;;5038909;28;1281;-70
2023/12/09 08:24:04;;;;;;;;;;;20.10;58.10;;;;;;5037029;28;1640;-71
2023/12/09 08:26:29;;;;;;;;;;;20.10;58.10;;;;;;5036629;28;1260;-70
2023/12/09 08:28:55;;;;;;;;;;;20.10;58.10;;;;;;5037869;28;1925;-69
2023/12/09 08:31:20;;;;;;;;;;;20.10;58.10;;;;;;5038656;28;1961;-70
2023/12/09 08:33:46;;;;;;;;;;;20.10;58.10;;;;;;5037449;28;1220;-70
2023/12/09 08:36:11;;;;;;;;;;;20.00;58.10;;;;;;5038885;28;1244;-71
2023/12/09 08:38:37;;;;;;;;;;;20.00;58.10;;;;;;5035982;28;1370;-70
2023/12/09 08:41:02;;;;;;;;;;;20.10;58.10;;;;;;5037102;28;1380;-70
2023/12/09 08:43:28;;;;;;;;;;;20.00;58.10;;;;;;5038267;28;1224;-71
2023/12/09 08:45:53;;;;;;;;;;;20.10;58.10;;;;;;5040130;28;1222;-71
2023/12/09 08:48:19;;;;;;;;;;;20.00;58.10;;;;;;5034024;28;1641;-70
2023/12/09 08:50:44;;;;;;;;;;;20.00;58.10;;;;;;5037696;28;1914;-71
2023/12/09 08:53:10;;;;;;;;;;;20.00;58.10;;;;;;5040444;28;1354;-71
2023/12/09 08:55:35;;;;;;;;;;;20.00;58.10;;;;;;5038150;28;1275;-71
2023/12/09 08:58:01;;;;;;;;;;;20.00;58.10;;;;;;5037820;28;1328;-70
2023/12/09 09:00:27;;;;;;;;;;;20.00;58.10;;;;;;5038471;28;1463;-71
2023/12/09 09:02:55;;;;;;;;;;;20.00;58.10;;;;;;5039029;28;1301;-71
2023/12/09 09:05:22;;;;;;;;;;;20.00;58.10;;;;;;5038330;28;1706;-70
2023/12/09 09:07:47;;;;;;;;;;;20.00;58.10;;;;;;5032974;28;1711;-69
2023/12/09 09:10:16;;;;;;;;;;;20.00;58.10;;;;;;5039604;28;1987;-70
2023/12/09 09:12:43;;;;;;;;;;;20.00;58.10;;;;;;5028908;28;1494;-68
2023/12/09 09:15:08;;;;;;;;;;;20.00;58.10;;;;;;5036623;28;1228;-69
2023/12/09 09:17:34;;;;;;;;;;;20.00;58.10;;;;;;5034550;28;1679;-70
2023/12/09 09:20:00;;;;;;;;;;;20.00;58.10;;;;;;5036535;28;1220;-70
2023/12/09 09:22:26;;;;;;;;;;;20.00;58.10;;;;;;5038014;28;1263;-70
2023/12/09 09:24:51;;;;;;;;;;;20.00;58.10;;;;;;5037605;28;1269;-70
2023/12/09 09:27:17;;;;;;;;;;;20.00;58.10;;;;;;5036204;28;1359;-70
2023/12/09 09:29:42;;;;;;;;;;;20.00;58.10;;;;;;5037691;28;1956;-70
2023/12/09 09:32:08;;;;;;;;;;;20.00;58.20;;;;;;5041798;28;1210;-72
2023/12/09 09:34:33;;;;;;;;;;;20.00;58.20;;;;;;5038770;28;1147;-69
2023/12/09 09:36:59;;;;;;;;;;;19.90;58.10;;;;;;5042343;28;1268;-69
2023/12/09 09:39:24;;;;;;;;;;;19.90;58.20;;;;;;5037909;28;1572;-70
2023/12/09 09:41:55;;;;;;;;;;;19.90;58.20;;;;;;5040479;28;1020;-70
2023/12/09 09:44:22;;;;;;;;;;;19.90;58.20;;;;;;5040410;28;831;-69
2023/12/09 09:46:49;;;;;;;;;;;19.90;58.20;;;;;;5041097;28;919;-72
2023/12/09 09:49:14;;;;;;;;;;;19.90;58.20;;;;;;5042614;28;1902;-70
2023/12/09 09:51:42;;;;;;;;;;;19.90;58.20;;;;;;5036834;28;1259;-69
2023/12/09 09:54:34;;;;;;;;;;;19.90;58.30;;;;;;5036744;28;1868;-70
2023/12/09 09:57:03;;;;;;;;;;;19.90;58.30;;;;;;5033527;28;1385;-70
2023/12/09 09:59:29;;;;;;;;;;;19.90;58.30;;;;;;5035543;28;1402;-71
2023/12/09 10:01:54;;;;;;;;;;;19.90;58.30;;;;;;5042039;28;1269;-71
2023/12/09 10:04:20;;;;;;;;;;;19.90;58.30;;;;;;5041080;28;1571;-70
2023/12/09 10:06:46;;;;;;;;;;;19.90;58.30;;;;;;5038783;28;1404;-70
2023/12/09 10:09:11;;;;;;;;;;;19.90;58.30;;;;;;5041181;28;1918;-70
2023/12/09 10:11:37;;;;;;;;;;;19.90;58.30;;;;;;5039591;28;1247;-71
2023/12/09 10:14:03;;;;;;;;;;;19.80;58.30;;;;;;5042709;28;1309;-70
2023/12/09 10:16:28;;;;;;;;;;;19.80;58.40;;;;;;5042564;28;1248;-71
2023/12/09 10:18:54;;;;;;;;;;;19.80;58.40;;;;;;5042726;28;1351;-72
2023/12/09 10:21:20;;;;;;;;;;;19.80;58.40;;;;;;5040732;28;1255;-72
2023/12/09 10:23:45;;;;;;;;;;;19.80;58.40;;;;;;5040608;28;1384;-71
2023/12/09 10:26:11;;;;;;;;;;;19.80;58.50;;;;;;5041227;28;1403;-71
2023/12/09 10:28:37;;;;;;;;;;;19.80;58.50;;;;;;5053205;28;1272;-71
2023/12/09 10:31:02;;;;;;;;;;;19.80;58.50;;;;;;5041935;28;1906;-71
2023/12/09 10:33:29;;;;;;;;;;;19.80;58.50;;;;;;5040201;28;1404;-71
2023/12/09 10:35:54;;;;;;;;;;;19.80;58.50;;;;;;5030908;28;1418;-71
2023/12/09 10:38:20;;;;;;;;;;;19.80;58.50;;;;;;5036497;28;1343;-71
2023/12/09 10:40:45;;;;;;;;;;;19.70;58.50;;;;;;5039289;28;1555;-70
2023/12/09 10:43:12;;;;;;;;;;;19.70;58.60;;;;;;5040282;28;1450;-71
2023/12/09 10:45:37;;;;;;;;;;;19.70;58.60;;;;;;5036480;28;1453;-70
2023/12/09 10:48:03;;;;;;;;;;;19.70;58.60;;;;;;5042637;28;1492;-70
2023/12/09 10:50:29;;;;;;;;;;;19.70;58.70;;;;;;5040463;28;1961;-70
2023/12/09 10:52:56;;;;;;;;;;;19.70;58.70;;;;;;5037960;28;1474;-73
2023/12/09 10:55:22;;;;;;;;;;;19.70;58.70;;;;;;5041000;28;1405;-70
2023/12/09 10:57:48;;;;;;;;;;;19.70;58.70;;;;;;5026419;28;1867;-71
2023/12/09 11:00:15;;;;;;;;;;;19.70;58.80;;;;;;5047582;28;1499;-70
2023/12/09 11:02:40;;;;;;;;;;;19.70;58.80;;;;;;5035377;28;1406;-71
2023/12/09 11:05:12;;;;;;;;;;;19.70;58.80;;;;;;5045718;28;1435;-71
2023/12/09 11:07:38;;;;;;;;;;;19.60;58.80;;;;;;5040020;28;1369;-71
2023/12/09 11:10:06;;;;;;;;;;;19.60;58.80;;;;;;5038452;28;1905;-71
2023/12/09 11:12:32;;;;;;;;;;;19.60;58.80;;;;;;5039154;28;1465;-71
2023/12/09 11:15:12;;;;;;;;;;;19.60;58.90;;;;;;5043167;28;1115;-71
2023/12/09 11:17:38;;;;;;;;;;;19.60;58.90;;;;;;5041578;28;1366;-72
2023/12/09 11:20:09;;;;;;;;;;;19.60;58.90;;;;;;5043403;28;1374;-71
2023/12/09 11:22:38;;;;;;;;;;;19.60;58.90;;;;;;5037026;28;1196;-70
2023/12/09 11:25:04;;;;;;;;;;;19.60;59.00;;;;;;5040804;28;1396;-71
2023/12/09 11:27:32;;;;;;;;;;;19.50;58.90;;;;;;5040193;28;1605;-71
2023/12/09 11:29:58;;;;;;;;;;;19.50;59.00;;;;;;5040086;28;1906;-71
2023/12/09 11:32:23;;;;;;;;;;;19.50;59.00;;;;;;5039825;28;1444;-71
2023/12/09 11:34:49;;;;;;;;;;;19.50;59.00;;;;;;5038459;28;1278;-71
2023/12/09 11:37:14;;;;;;;;;;;19.50;59.10;;;;;;5041650;28;1487;-72
2023/12/09 11:39:40;;;;;;;;;;;19.50;59.10;;;;;;5040500;28;1395;-71
2023/12/09 11:42:06;;;;;;;;;;;19.50;59.10;;;;;;5043538;28;1307;-71
2023/12/09 11:44:31;;;;;;;;;;;19.50;59.10;;;;;;5044069;28;1288;-70
2023/12/09 11:46:57;;;;;;;;;;;19.50;59.10;;;;;;5039888;28;1494;-71
2023/12/09 11:49:22;;;;;;;;;;;19.50;59.10;;;;;;5038689;28;1894;-71
2023/12/09 11:51:48;;;;;;;;;;;19.50;59.10;;;;;;5046855;28;1466;-71
2023/12/09 11:54:13;;;;;;;;;;;19.50;59.10;;;;;;5041762;28;1419;-72
2023/12/09 11:56:39;;;;;;;;;;;19.50;59.20;;;;;;5038327;28;1351;-72
2023/12/09 11:59:05;;;;;;;;;;;19.50;59.10;;;;;;5036646;28;1375;-71
2023/12/09 12:01:31;;;;;;;;;;;19.50;59.20;;;;;;5039999;28;1339;-71
2023/12/09 12:03:57;;;;;;;;;;;19.50;59.20;;;;;;5040403;28;1080;-71
2023/12/09 12:06:23;;;;;;;;;;;19.50;59.20;;;;;;5046262;28;1535;-72
2023/12/09 12:08:49;;;;;;;;;;;19.40;59.10;;;;;;5041851;28;1367;-72
2023/12/09 12:11:15;;;;;;;;;;;19.40;59.10;;;;;;5049118;28;1979;-72
2023/12/09 12:13:40;;;;;;;;;;;19.40;59.20;;;;;;5039685;28;1069;-72
2023/12/09 12:16:06;;;;;;;;;;;19.40;59.10;;;;;;5036704;28;1856;-71
2023/12/09 12:18:32;;;;;;;;;;;19.40;59.10;;;;;;5045766;28;1614;-71
2023/12/09 12:20:58;;;;;;;;;;;19.50;59.20;;;;;;5040542;28;1434;-70
2023/12/09 12:23:23;;;;;;;;;;;19.40;59.20;;;;;;5036034;28;1398;-71
2023/12/09 12:25:50;;;;;;;;;;;19.40;59.20;;;;;;5040462;28;991;-71
2023/12/09 12:28:16;;;;;;;;;;;19.40;59.20;;;;;;5026426;28;4042;-71
2023/12/09 12:30:42;;;;;;;;;;;19.40;59.20;;;;;;5053664;28;1977;-71
2023/12/09 12:33:07;;;;;;;;;;;19.40;59.10;;;;;;5038151;28;1440;-71
2023/12/09 12:35:33;;;;;;;;;;;19.40;59.20;;;;;;5038617;28;1429;-71
2023/12/09 12:37:58;;;;;;;;;;;19.40;59.20;;;;;;5040893;28;1527;-71
2023/12/09 12:40:24;;;;;;;;;;;19.40;59.20;;;;;;5037535;28;1474;-71
2023/12/09 12:42:50;;;;;;;;;;;19.40;59.20;;;;;;5040622;28;1236;-70
2023/12/09 12:45:25;;;;;;;;;;;19.40;59.20;;;;;;5036900;28;1756;-70
2023/12/09 12:47:50;;;;;;;;;;;19.40;59.20;;;;;;5035910;28;1300;-70
2023/12/09 12:50:18;;;;;;;;;;;19.40;59.20;;;;;;5035395;28;1903;-71
2023/12/09 12:52:44;;;;;;;;;;;19.40;59.20;;;;;;5038914;28;1410;-72
2023/12/09 12:55:10;;;;;;;;;;;19.40;59.20;;;;;;5035706;28;2002;-69
2023/12/09 12:57:35;;;;;;;;;;;19.40;59.20;;;;;;5038165;28;1361;-70
2023/12/09 13:00:03;;;;;;;;;;;19.40;59.20;;;;;;5038042;28;1440;-69
2023/12/09 13:02:29;;;;;;;;;;;19.40;59.20;;;;;;5036376;28;1309;-69
2023/12/09 13:04:54;;;;;;;;;;;19.40;59.20;;;;;;5036364;28;2066;-70
2023/12/09 13:07:20;;;;;;;;;;;19.40;59.20;;;;;;5037698;28;1404;-71
2023/12/09 13:09:45;;;;;;;;;;;19.40;59.20;;;;;;5034721;28;1963;-70
2023/12/09 13:12:11;;;;;;;;;;;19.40;59.20;;;;;;5057677;28;4070;-72
2023/12/09 13:14:36;;;;;;;;;;;19.40;59.20;;;;;;5037731;28;1867;-71
2023/12/09 13:17:05;;;;;;;;;;;19.40;59.20;;;;;;5038275;28;2122;-71
2023/12/09 13:19:31;;;;;;;;;;;19.40;59.20;;;;;;5037897;28;1274;-71
2023/12/09 13:21:56;;;;;;;;;;;19.40;59.20;;;;;;5035572;28;3015;-72
2023/12/09 13:24:22;;;;;;;;;;;19.40;59.20;;;;;;5035996;28;1385;-71
2023/12/09 13:26:47;;;;;;;;;;;19.30;59.20;;;;;;5037815;28;1323;-71
2023/12/09 13:29:13;;;;;;;;;;;19.30;59.20;;;;;;5038486;28;1985;-71
2023/12/09 13:31:38;;;;;;;;;;;19.30;59.20;;;;;;5037407;28;1212;-71
2023/12/09 13:34:07;;;;;;;;;;;19.30;59.20;;;;;;5041879;28;1508;-71
2023/12/09 13:36:33;;;;;;;;;;;19.40;59.30;;;;;;5037283;28;1497;-70
2023/12/09 13:38:58;;;;;;;;;;;19.30;59.20;;;;;;5043941;28;1414;-71
2023/12/09 13:41:24;;;;;;;;;;;19.30;59.20;;;;;;5039682;28;1815;-70
2023/12/09 13:43:49;;;;;;;;;;;19.30;59.20;;;;;;5041762;28;1292;-72
2023/12/09 13:46:15;;;;;;;;;;;19.30;59.20;;;;;;5037971;28;1352;-71
2023/12/09 13:48:40;;;;;;;;;;;19.30;59.20;;;;;;5035967;28;1627;-71
2023/12/09 13:51:08;;;;;;;;;;;19.30;59.20;;;;;;5037334;28;1938;-71
2023/12/09 13:53:34;;;;;;;;;;;19.30;59.20;;;;;;5040883;28;1275;-71
2023/12/09 13:55:59;;;;;;;;;;;19.30;59.20;;;;;;5038182;28;1269;-71
2023/12/09 13:58:25;;;;;;;;;;;19.30;59.20;;;;;;5037018;28;1304;-71
2023/12/09 14:00:51;;;;;;;;;;;19.30;59.30;;;;;;5037323;28;1358;-71
2023/12/09 14:03:17;;;;;;;;;;;19.30;59.30;;;;;;5036687;28;1261;-70
2023/12/09 14:05:43;;;;;;;;;;;19.30;59.20;;;;;;5038366;28;1426;-71
2023/12/09 14:08:08;;;;;;;;;;;19.30;59.30;;;;;;5037454;28;1260;-71
2023/12/09 14:10:34;;;;;;;;;;;19.30;59.30;;;;;;5038118;28;1918;-71
2023/12/09 14:12:59;;;;;;;;;;;19.30;59.20;;;;;;5035837;28;1250;-70
2023/12/09 14:15:25;;;;;;;;;;;19.40;60.00;;;;;;5054087;28;1197;-71
2023/12/09 14:17:51;;;;;;;;;;;19.30;59.70;;;;;;5036082;28;1277;-71
2023/12/09 14:20:19;;;;;;;;;;;19.30;59.50;;;;;;5033434;28;1418;-71
2023/12/09 14:22:45;;;;;;;;;;;19.30;59.50;;;;;;5037883;28;1433;-71